sensor_id;sensor_type;location;lat;lon;timestamp;temperature;humidity
25945;SHT31;13742;49.306;8.636;2023-03-14T00:00:11;11.63;80.31
25945;SHT31;13742;49.306;8.636;2023-03-14T00:01:16;11.61;80.38
25945;SHT31;13742;49.306;8.636;2023-03-14T00:02:07;11.64;80.26
25945;SHT31;13742;49.306;8.636;2023-03-14T00:03:07;11.66;79.93
25945;SHT31;13742;49.306;8.636;2023-03-14T00:04:07;11.63;80.14
25945;SHT31;13742;49.306;8.636;2023-03-14T00:05:08;11.63;80.20
25945;SHT31;13742;49.306;8.636;2023-03-14T00:06:08;11.64;80.04
25945;SHT31;13742;49.306;8.636;2023-03-14T00:07:07;11.66;79.82
25945;SHT31;13742;49.306;8.636;2023-03-14T00:08:07;11.67;79.85
25945;SHT31;13742;49.306;8.636;2023-03-14T00:09:07;11.67;80.15
25945;SHT31;13742;49.306;8.636;2023-03-14T00:10:13;11.67;80.13
25945;SHT31;13742;49.306;8.636;2023-03-14T00:11:13;11.69;79.78
25945;SHT31;13742;49.306;8.636;2023-03-14T00:12:08;11.69;79.93
25945;SHT31;13742;49.306;8.636;2023-03-14T00:13:07;11.67;79.86
25945;SHT31;13742;49.306;8.636;2023-03-14T00:14:07;11.67;79.89
25945;SHT31;13742;49.306;8.636;2023-03-14T00:15:08;11.67;80.01
25945;SHT31;13742;49.306;8.636;2023-03-14T00:16:10;11.67;79.80
25945;SHT31;13742;49.306;8.636;2023-03-14T00:17:07;11.66;79.51
25945;SHT31;13742;49.306;8.636;2023-03-14T00:18:07;11.70;79.42
25945;SHT31;13742;49.306;8.636;2023-03-14T00:19:08;11.67;79.57
25945;SHT31;13742;49.306;8.636;2023-03-14T00:20:11;11.71;79.11
25945;SHT31;13742;49.306;8.636;2023-03-14T00:21:09;11.71;79.47
25945;SHT31;13742;49.306;8.636;2023-03-14T00:22:07;11.73;79.58
25945;SHT31;13742;49.306;8.636;2023-03-14T00:23:07;11.73;79.41
25945;SHT31;13742;49.306;8.636;2023-03-14T00:24:08;11.73;79.32
25945;SHT31;13742;49.306;8.636;2023-03-14T00:25:09;11.74;79.62
25945;SHT31;13742;49.306;8.636;2023-03-14T00:26:12;11.73;79.37
25945;SHT31;13742;49.306;8.636;2023-03-14T00:27:07;11.74;79.39
25945;SHT31;13742;49.306;8.636;2023-03-14T00:28:07;11.74;79.47
25945;SHT31;13742;49.306;8.636;2023-03-14T00:29:07;11.76;79.17
25945;SHT31;13742;49.306;8.636;2023-03-14T00:30:08;11.76;79.43
25945;SHT31;13742;49.306;8.636;2023-03-14T00:31:10;11.74;79.30
25945;SHT31;13742;49.306;8.636;2023-03-14T00:32:07;11.76;79.49
25945;SHT31;13742;49.306;8.636;2023-03-14T00:33:07;11.76;79.55
25945;SHT31;13742;49.306;8.636;2023-03-14T00:34:07;11.74;79.27
25945;SHT31;13742;49.306;8.636;2023-03-14T00:35:08;11.77;79.39
25945;SHT31;13742;49.306;8.636;2023-03-14T00:36:14;11.76;79.35
25945;SHT31;13742;49.306;8.636;2023-03-14T00:37:07;11.76;79.38
25945;SHT31;13742;49.306;8.636;2023-03-14T00:38:07;11.77;79.42
25945;SHT31;13742;49.306;8.636;2023-03-14T00:39:07;11.73;79.29
25945;SHT31;13742;49.306;8.636;2023-03-14T00:40:09;11.77;79.27
25945;SHT31;13742;49.306;8.636;2023-03-14T00:41:09;11.76;79.52
25945;SHT31;13742;49.306;8.636;2023-03-14T00:42:07;11.76;79.80
25945;SHT31;13742;49.306;8.636;2023-03-14T00:43:07;11.77;79.35
25945;SHT31;13742;49.306;8.636;2023-03-14T00:44:07;11.77;79.30
25945;SHT31;13742;49.306;8.636;2023-03-14T00:45:09;11.78;79.31
25945;SHT31;13742;49.306;8.636;2023-03-14T00:46:08;11.80;79.27
25945;SHT31;13742;49.306;8.636;2023-03-14T00:47:07;11.76;79.59
25945;SHT31;13742;49.306;8.636;2023-03-14T00:48:07;11.77;79.40
25945;SHT31;13742;49.306;8.636;2023-03-14T00:49:07;11.76;79.58
25945;SHT31;13742;49.306;8.636;2023-03-14T00:50:08;11.77;79.71
25945;SHT31;13742;49.306;8.636;2023-03-14T00:51:08;11.76;79.55
25945;SHT31;13742;49.306;8.636;2023-03-14T00:52:07;11.76;79.53
25945;SHT31;13742;49.306;8.636;2023-03-14T00:53:07;11.77;79.60
25945;SHT31;13742;49.306;8.636;2023-03-14T00:54:08;11.78;79.76
25945;SHT31;13742;49.306;8.636;2023-03-14T00:55:07;11.77;79.66
25945;SHT31;13742;49.306;8.636;2023-03-14T00:56:11;11.77;79.67
25945;SHT31;13742;49.306;8.636;2023-03-14T00:57:07;11.77;79.59
25945;SHT31;13742;49.306;8.636;2023-03-14T00:58:08;11.77;79.93
25945;SHT31;13742;49.306;8.636;2023-03-14T00:59:07;11.76;79.82
25945;SHT31;13742;49.306;8.636;2023-03-14T01:00:11;11.76;79.77
25945;SHT31;13742;49.306;8.636;2023-03-14T01:01:09;11.76;79.89
25945;SHT31;13742;49.306;8.636;2023-03-14T01:02:07;11.78;79.81
25945;SHT31;13742;49.306;8.636;2023-03-14T01:03:08;11.77;79.96
25945;SHT31;13742;49.306;8.636;2023-03-14T01:04:07;11.77;79.91
25945;SHT31;13742;49.306;8.636;2023-03-14T01:05:07;11.74;80.04
25945;SHT31;13742;49.306;8.636;2023-03-14T01:06:13;11.76;79.99
25945;SHT31;13742;49.306;8.636;2023-03-14T01:07:07;11.77;80.01
25945;SHT31;13742;49.306;8.636;2023-03-14T01:08:08;11.76;80.04
25945;SHT31;13742;49.306;8.636;2023-03-14T01:09:07;11.77;79.93
25945;SHT31;13742;49.306;8.636;2023-03-14T01:10:08;11.77;80.02
25945;SHT31;13742;49.306;8.636;2023-03-14T01:11:15;11.78;79.92
25945;SHT31;13742;49.306;8.636;2023-03-14T01:12:07;11.80;79.81
25945;SHT31;13742;49.306;8.636;2023-03-14T01:13:08;11.78;80.02
25945;SHT31;13742;49.306;8.636;2023-03-14T01:14:07;11.76;79.99
25945;SHT31;13742;49.306;8.636;2023-03-14T01:15:08;11.81;80.05
25945;SHT31;13742;49.306;8.636;2023-03-14T01:16:09;11.77;80.09
25945;SHT31;13742;49.306;8.636;2023-03-14T01:17:07;11.78;80.20
25945;SHT31;13742;49.306;8.636;2023-03-14T01:18:07;11.80;80.06
25945;SHT31;13742;49.306;8.636;2023-03-14T01:19:07;11.83;79.92
25945;SHT31;13742;49.306;8.636;2023-03-14T01:20:11;11.83;79.79
25945;SHT31;13742;49.306;8.636;2023-03-14T01:21:13;11.85;80.30
25945;SHT31;13742;49.306;8.636;2023-03-14T01:22:07;11.87;80.87
25945;SHT31;13742;49.306;8.636;2023-03-14T01:23:07;11.85;80.82
25945;SHT31;13742;49.306;8.636;2023-03-14T01:24:09;11.84;80.82
25945;SHT31;13742;49.306;8.636;2023-03-14T01:25:10;11.83;81.02
25945;SHT31;13742;49.306;8.636;2023-03-14T01:26:13;11.83;81.41
25945;SHT31;13742;49.306;8.636;2023-03-14T01:27:07;11.81;81.34
25945;SHT31;13742;49.306;8.636;2023-03-14T01:28:07;11.77;81.36
25945;SHT31;13742;49.306;8.636;2023-03-14T01:29:07;11.78;81.51
25945;SHT31;13742;49.306;8.636;2023-03-14T01:30:09;11.78;81.70
25945;SHT31;13742;49.306;8.636;2023-03-14T01:31:09;11.73;81.68
25945;SHT31;13742;49.306;8.636;2023-03-14T01:32:07;11.77;81.63
25945;SHT31;13742;49.306;8.636;2023-03-14T01:33:07;11.76;81.54
25945;SHT31;13742;49.306;8.636;2023-03-14T01:34:07;11.77;81.61
25945;SHT31;13742;49.306;8.636;2023-03-14T01:35:07;11.71;81.85
25945;SHT31;13742;49.306;8.636;2023-03-14T01:36:09;11.74;81.50
25945;SHT31;13742;49.306;8.636;2023-03-14T01:37:08;11.73;81.60
25945;SHT31;13742;49.306;8.636;2023-03-14T01:38:07;11.71;81.67
25945;SHT31;13742;49.306;8.636;2023-03-14T01:39:08;11.73;81.40
25945;SHT31;13742;49.306;8.636;2023-03-14T01:40:10;11.71;81.58
25945;SHT31;13742;49.306;8.636;2023-03-14T01:41:09;11.70;81.50
25945;SHT31;13742;49.306;8.636;2023-03-14T01:42:07;11.71;81.12
25945;SHT31;13742;49.306;8.636;2023-03-14T01:43:15;11.74;81.16
25945;SHT31;13742;49.306;8.636;2023-03-14T01:44:11;11.71;81.12
25945;SHT31;13742;49.306;8.636;2023-03-14T01:46:18;11.71;81.08
25945;SHT31;13742;49.306;8.636;2023-03-14T01:47:07;11.73;81.11
25945;SHT31;13742;49.306;8.636;2023-03-14T01:48:07;11.74;80.89
25945;SHT31;13742;49.306;8.636;2023-03-14T01:49:14;11.76;80.68
25945;SHT31;13742;49.306;8.636;2023-03-14T01:50:10;11.76;80.41
25945;SHT31;13742;49.306;8.636;2023-03-14T01:51:14;11.78;80.55
25945;SHT31;13742;49.306;8.636;2023-03-14T01:52:11;11.77;80.32
25945;SHT31;13742;49.306;8.636;2023-03-14T01:53:07;11.76;80.52
25945;SHT31;13742;49.306;8.636;2023-03-14T01:54:12;11.77;80.49
25945;SHT31;13742;49.306;8.636;2023-03-14T01:55:14;11.77;80.61
25945;SHT31;13742;49.306;8.636;2023-03-14T01:56:11;11.76;80.63
25945;SHT31;13742;49.306;8.636;2023-03-14T01:57:16;11.78;80.56
25945;SHT31;13742;49.306;8.636;2023-03-14T01:58:08;11.77;80.69
25945;SHT31;13742;49.306;8.636;2023-03-14T01:59:08;11.73;80.93
25945;SHT31;13742;49.306;8.636;2023-03-14T02:00:15;11.73;80.80
25945;SHT31;13742;49.306;8.636;2023-03-14T02:01:08;11.73;80.57
25945;SHT31;13742;49.306;8.636;2023-03-14T02:02:09;11.74;80.56
25945;SHT31;13742;49.306;8.636;2023-03-14T02:03:12;11.74;80.61
25945;SHT31;13742;49.306;8.636;2023-03-14T02:04:08;11.73;80.82
25945;SHT31;13742;49.306;8.636;2023-03-14T02:05:09;11.76;80.49
25945;SHT31;13742;49.306;8.636;2023-03-14T02:06:07;11.73;80.63
25945;SHT31;13742;49.306;8.636;2023-03-14T02:07:15;11.73;80.68
25945;SHT31;13742;49.306;8.636;2023-03-14T02:08:10;11.73;80.63
25945;SHT31;13742;49.306;8.636;2023-03-14T02:09:07;11.71;80.46
25945;SHT31;13742;49.306;8.636;2023-03-14T02:10:08;11.71;80.75
25945;SHT31;13742;49.306;8.636;2023-03-14T02:11:08;11.70;80.37
25945;SHT31;13742;49.306;8.636;2023-03-14T02:12:08;11.69;80.35
25945;SHT31;13742;49.306;8.636;2023-03-14T02:13:07;11.69;80.43
25945;SHT31;13742;49.306;8.636;2023-03-14T02:14:10;11.64;80.49
25945;SHT31;13742;49.306;8.636;2023-03-14T02:15:08;11.64;80.42
25945;SHT31;13742;49.306;8.636;2023-03-14T02:16:08;11.60;80.42
25945;SHT31;13742;49.306;8.636;2023-03-14T02:17:07;11.63;80.30
25945;SHT31;13742;49.306;8.636;2023-03-14T02:18:07;11.61;80.38
25945;SHT31;13742;49.306;8.636;2023-03-14T02:19:07;11.60;80.55
25945;SHT31;13742;49.306;8.636;2023-03-14T02:22:12;11.59;80.59
25945;SHT31;13742;49.306;8.636;2023-03-14T02:23:07;11.59;80.63
25945;SHT31;13742;49.306;8.636;2023-03-14T02:26:15;11.54;80.91
25945;SHT31;13742;49.306;8.636;2023-03-14T02:27:15;11.53;80.97
25945;SHT31;13742;49.306;8.636;2023-03-14T02:28:07;11.52;81.00
25945;SHT31;13742;49.306;8.636;2023-03-14T02:29:07;11.50;81.12
25945;SHT31;13742;49.306;8.636;2023-03-14T02:30:18;11.50;81.18
25945;SHT31;13742;49.306;8.636;2023-03-14T02:31:08;11.49;81.37
25945;SHT31;13742;49.306;8.636;2023-03-14T02:32:07;11.50;81.42
25945;SHT31;13742;49.306;8.636;2023-03-14T02:33:10;11.49;81.46
25945;SHT31;13742;49.306;8.636;2023-03-14T02:34:07;11.45;81.48
25945;SHT31;13742;49.306;8.636;2023-03-14T02:35:10;11.47;81.63
25945;SHT31;13742;49.306;8.636;2023-03-14T02:36:09;11.47;81.49
25945;SHT31;13742;49.306;8.636;2023-03-14T02:37:07;11.46;81.66
25945;SHT31;13742;49.306;8.636;2023-03-14T02:38:20;11.47;81.47
25945;SHT31;13742;49.306;8.636;2023-03-14T02:39:26;11.47;81.69
25945;SHT31;13742;49.306;8.636;2023-03-14T02:40:08;11.45;81.90
25945;SHT31;13742;49.306;8.636;2023-03-14T02:41:07;11.45;81.87
25945;SHT31;13742;49.306;8.636;2023-03-14T02:42:07;11.43;82.01
25945;SHT31;13742;49.306;8.636;2023-03-14T02:43:07;11.42;82.12
25945;SHT31;13742;49.306;8.636;2023-03-14T02:44:07;11.42;82.26
25945;SHT31;13742;49.306;8.636;2023-03-14T02:45:29;11.39;82.06
25945;SHT31;13742;49.306;8.636;2023-03-14T02:46:10;11.40;81.92
25945;SHT31;13742;49.306;8.636;2023-03-14T02:47:07;11.42;81.88
25945;SHT31;13742;49.306;8.636;2023-03-14T02:48:12;11.40;82.01
25945;SHT31;13742;49.306;8.636;2023-03-14T02:49:10;11.42;81.98
25945;SHT31;13742;49.306;8.636;2023-03-14T02:50:13;11.42;82.10
25945;SHT31;13742;49.306;8.636;2023-03-14T02:51:08;11.39;82.17
25945;SHT31;13742;49.306;8.636;2023-03-14T02:52:07;11.40;82.03
25945;SHT31;13742;49.306;8.636;2023-03-14T02:53:07;11.39;82.06
25945;SHT31;13742;49.306;8.636;2023-03-14T02:54:07;11.38;81.91
25945;SHT31;13742;49.306;8.636;2023-03-14T02:55:07;11.36;81.93
25945;SHT31;13742;49.306;8.636;2023-03-14T02:56:08;11.38;81.87
25945;SHT31;13742;49.306;8.636;2023-03-14T02:57:07;11.38;81.92
25945;SHT31;13742;49.306;8.636;2023-03-14T02:58:07;11.36;81.91
25945;SHT31;13742;49.306;8.636;2023-03-14T02:59:07;11.36;81.72
25945;SHT31;13742;49.306;8.636;2023-03-14T03:00:09;11.35;81.98
25945;SHT31;13742;49.306;8.636;2023-03-14T03:01:07;11.36;81.84
25945;SHT31;13742;49.306;8.636;2023-03-14T03:02:07;11.35;81.87
25945;SHT31;13742;49.306;8.636;2023-03-14T03:03:07;11.36;81.84
25945;SHT31;13742;49.306;8.636;2023-03-14T03:04:07;11.33;81.90
25945;SHT31;13742;49.306;8.636;2023-03-14T03:05:07;11.33;81.89
25945;SHT31;13742;49.306;8.636;2023-03-14T03:06:07;11.32;81.91
25945;SHT31;13742;49.306;8.636;2023-03-14T03:07:07;11.32;81.64
25945;SHT31;13742;49.306;8.636;2023-03-14T03:08:07;11.32;81.60
25945;SHT31;13742;49.306;8.636;2023-03-14T03:09:07;11.30;81.61
25945;SHT31;13742;49.306;8.636;2023-03-14T03:10:08;11.33;81.35
25945;SHT31;13742;49.306;8.636;2023-03-14T03:11:07;11.36;81.16
25945;SHT31;13742;49.306;8.636;2023-03-14T03:12:07;11.35;81.28
25945;SHT31;13742;49.306;8.636;2023-03-14T03:13:07;11.35;81.32
25945;SHT31;13742;49.306;8.636;2023-03-14T03:14:07;11.33;81.08
25945;SHT31;13742;49.306;8.636;2023-03-14T03:15:07;11.32;81.10
25945;SHT31;13742;49.306;8.636;2023-03-14T03:16:07;11.33;81.11
25945;SHT31;13742;49.306;8.636;2023-03-14T03:17:07;11.32;80.91
25945;SHT31;13742;49.306;8.636;2023-03-14T03:18:07;11.30;81.08
25945;SHT31;13742;49.306;8.636;2023-03-14T03:19:07;11.29;81.07
25945;SHT31;13742;49.306;8.636;2023-03-14T03:20:09;11.32;80.99
25945;SHT31;13742;49.306;8.636;2023-03-14T03:21:09;11.30;81.05
25945;SHT31;13742;49.306;8.636;2023-03-14T03:22:07;11.30;80.82
25945;SHT31;13742;49.306;8.636;2023-03-14T03:23:07;11.27;80.82
25945;SHT31;13742;49.306;8.636;2023-03-14T03:24:07;11.29;80.81
25945;SHT31;13742;49.306;8.636;2023-03-14T03:25:07;11.29;80.81
25945;SHT31;13742;49.306;8.636;2023-03-14T03:26:09;11.27;80.95
25945;SHT31;13742;49.306;8.636;2023-03-14T03:27:07;11.27;80.80
25945;SHT31;13742;49.306;8.636;2023-03-14T03:28:07;11.29;80.77
25945;SHT31;13742;49.306;8.636;2023-03-14T03:29:07;11.26;80.78
25945;SHT31;13742;49.306;8.636;2023-03-14T03:30:08;11.26;80.76
25945;SHT31;13742;49.306;8.636;2023-03-14T03:31:08;11.25;80.75
25945;SHT31;13742;49.306;8.636;2023-03-14T03:32:07;11.25;80.79
25945;SHT31;13742;49.306;8.636;2023-03-14T03:33:07;11.21;80.61
25945;SHT31;13742;49.306;8.636;2023-03-14T03:34:07;11.23;80.59
25945;SHT31;13742;49.306;8.636;2023-03-14T03:35:07;11.22;80.63
25945;SHT31;13742;49.306;8.636;2023-03-14T03:36:08;11.22;80.42
25945;SHT31;13742;49.306;8.636;2023-03-14T03:37:07;11.23;80.39
25945;SHT31;13742;49.306;8.636;2023-03-14T03:38:07;11.22;80.42
25945;SHT31;13742;49.306;8.636;2023-03-14T03:39:07;11.25;80.01
25945;SHT31;13742;49.306;8.636;2023-03-14T03:40:08;11.23;80.16
25945;SHT31;13742;49.306;8.636;2023-03-14T03:41:07;11.25;80.11
25945;SHT31;13742;49.306;8.636;2023-03-14T03:42:07;11.22;80.12
25945;SHT31;13742;49.306;8.636;2023-03-14T03:43:07;11.22;80.07
25945;SHT31;13742;49.306;8.636;2023-03-14T03:44:07;11.21;80.10
25945;SHT31;13742;49.306;8.636;2023-03-14T03:45:07;11.22;80.25
25945;SHT31;13742;49.306;8.636;2023-03-14T03:46:08;11.19;80.16
25945;SHT31;13742;49.306;8.636;2023-03-14T03:47:07;11.19;80.14
25945;SHT31;13742;49.306;8.636;2023-03-14T03:48:07;11.18;80.04
25945;SHT31;13742;49.306;8.636;2023-03-14T03:49:07;11.19;80.02
25945;SHT31;13742;49.306;8.636;2023-03-14T03:50:07;11.19;79.96
25945;SHT31;13742;49.306;8.636;2023-03-14T03:51:07;11.18;80.05
25945;SHT31;13742;49.306;8.636;2023-03-14T03:52:07;11.15;80.00
25945;SHT31;13742;49.306;8.636;2023-03-14T03:53:07;11.16;80.12
25945;SHT31;13742;49.306;8.636;2023-03-14T03:54:07;11.13;80.33
25945;SHT31;13742;49.306;8.636;2023-03-14T03:55:07;11.15;80.12
25945;SHT31;13742;49.306;8.636;2023-03-14T03:56:08;11.15;80.04
25945;SHT31;13742;49.306;8.636;2023-03-14T03:57:07;11.13;79.93
25945;SHT31;13742;49.306;8.636;2023-03-14T03:58:07;11.15;79.95
25945;SHT31;13742;49.306;8.636;2023-03-14T03:59:07;11.13;79.98
25945;SHT31;13742;49.306;8.636;2023-03-14T04:00:10;11.12;79.83
25945;SHT31;13742;49.306;8.636;2023-03-14T04:01:08;11.11;79.67
25945;SHT31;13742;49.306;8.636;2023-03-14T04:02:07;11.13;79.68
25945;SHT31;13742;49.306;8.636;2023-03-14T04:03:07;11.13;79.46
25945;SHT31;13742;49.306;8.636;2023-03-14T04:04:07;11.11;79.55
25945;SHT31;13742;49.306;8.636;2023-03-14T04:05:07;11.12;79.40
25945;SHT31;13742;49.306;8.636;2023-03-14T04:06:10;11.16;79.01
25945;SHT31;13742;49.306;8.636;2023-03-14T04:07:07;11.15;79.11
25945;SHT31;13742;49.306;8.636;2023-03-14T04:08:07;11.13;79.04
25945;SHT31;13742;49.306;8.636;2023-03-14T04:09:08;11.15;79.12
25945;SHT31;13742;49.306;8.636;2023-03-14T04:10:08;11.12;78.99
25945;SHT31;13742;49.306;8.636;2023-03-14T04:11:07;11.13;78.78
25945;SHT31;13742;49.306;8.636;2023-03-14T04:12:07;11.18;78.48
25945;SHT31;13742;49.306;8.636;2023-03-14T04:13:07;11.13;78.49
25945;SHT31;13742;49.306;8.636;2023-03-14T04:14:07;11.11;78.47
25945;SHT31;13742;49.306;8.636;2023-03-14T04:15:08;11.09;78.47
25945;SHT31;13742;49.306;8.636;2023-03-14T04:17:07;11.09;78.25
25945;SHT31;13742;49.306;8.636;2023-03-14T04:18:07;11.08;78.13
25945;SHT31;13742;49.306;8.636;2023-03-14T04:19:07;11.11;78.14
25945;SHT31;13742;49.306;8.636;2023-03-14T04:20:11;11.12;77.99
25945;SHT31;13742;49.306;8.636;2023-03-14T04:21:07;11.09;78.30
25945;SHT31;13742;49.306;8.636;2023-03-14T04:22:08;11.15;77.77
25945;SHT31;13742;49.306;8.636;2023-03-14T04:23:07;11.12;77.81
25945;SHT31;13742;49.306;8.636;2023-03-14T04:24:08;11.12;77.90
25945;SHT31;13742;49.306;8.636;2023-03-14T04:25:07;11.12;77.67
25945;SHT31;13742;49.306;8.636;2023-03-14T04:26:07;11.12;77.87
25945;SHT31;13742;49.306;8.636;2023-03-14T04:27:07;11.13;77.67
25945;SHT31;13742;49.306;8.636;2023-03-14T04:28:07;11.11;77.57
25945;SHT31;13742;49.306;8.636;2023-03-14T04:29:07;11.12;77.48
25945;SHT31;13742;49.306;8.636;2023-03-14T04:30:08;11.09;77.24
25945;SHT31;13742;49.306;8.636;2023-03-14T04:31:12;11.12;77.29
25945;SHT31;13742;49.306;8.636;2023-03-14T04:32:07;11.12;77.33
25945;SHT31;13742;49.306;8.636;2023-03-14T04:33:07;11.11;77.33
25945;SHT31;13742;49.306;8.636;2023-03-14T04:34:07;11.06;77.49
25945;SHT31;13742;49.306;8.636;2023-03-14T04:35:07;11.06;77.50
25945;SHT31;13742;49.306;8.636;2023-03-14T04:36:08;11.05;77.37
25945;SHT31;13742;49.306;8.636;2023-03-14T04:37:07;11.08;77.41
25945;SHT31;13742;49.306;8.636;2023-03-14T04:38:07;11.06;77.46
25945;SHT31;13742;49.306;8.636;2023-03-14T04:39:07;11.09;76.76
25945;SHT31;13742;49.306;8.636;2023-03-14T04:40:08;11.06;76.86
25945;SHT31;13742;49.306;8.636;2023-03-14T04:41:07;11.05;76.53
25945;SHT31;13742;49.306;8.636;2023-03-14T04:42:07;11.06;76.38
25945;SHT31;13742;49.306;8.636;2023-03-14T04:43:11;11.03;76.55
25945;SHT31;13742;49.306;8.636;2023-03-14T04:44:07;11.08;76.30
25945;SHT31;13742;49.306;8.636;2023-03-14T04:45:07;11.08;76.06
25945;SHT31;13742;49.306;8.636;2023-03-14T04:46:07;11.08;76.21
25945;SHT31;13742;49.306;8.636;2023-03-14T04:47:07;11.06;76.46
25945;SHT31;13742;49.306;8.636;2023-03-14T04:48:07;11.03;76.28
25945;SHT31;13742;49.306;8.636;2023-03-14T04:49:07;11.06;75.99
25945;SHT31;13742;49.306;8.636;2023-03-14T04:50:08;11.06;75.83
25945;SHT31;13742;49.306;8.636;2023-03-14T04:51:07;11.03;75.80
25945;SHT31;13742;49.306;8.636;2023-03-14T04:52:07;11.02;75.86
25945;SHT31;13742;49.306;8.636;2023-03-14T04:53:07;11.03;75.77
25945;SHT31;13742;49.306;8.636;2023-03-14T04:54:07;11.01;75.69
25945;SHT31;13742;49.306;8.636;2023-03-14T04:55:07;11.01;75.63
25945;SHT31;13742;49.306;8.636;2023-03-14T04:56:07;10.99;75.59
25945;SHT31;13742;49.306;8.636;2023-03-14T04:57:07;11.01;75.61
25945;SHT31;13742;49.306;8.636;2023-03-14T04:58:07;10.99;75.49
25945;SHT31;13742;49.306;8.636;2023-03-14T04:59:08;10.98;75.37
25945;SHT31;13742;49.306;8.636;2023-03-14T05:00:08;10.98;75.34
25945;SHT31;13742;49.306;8.636;2023-03-14T05:01:07;10.98;75.23
25945;SHT31;13742;49.306;8.636;2023-03-14T05:02:07;10.99;75.14
25945;SHT31;13742;49.306;8.636;2023-03-14T05:03:07;11.02;74.87
25945;SHT31;13742;49.306;8.636;2023-03-14T05:04:07;10.98;75.20
25945;SHT31;13742;49.306;8.636;2023-03-14T05:05:07;10.99;75.41
25945;SHT31;13742;49.306;8.636;2023-03-14T05:06:07;10.96;75.26
25945;SHT31;13742;49.306;8.636;2023-03-14T05:07:07;10.98;75.34
25945;SHT31;13742;49.306;8.636;2023-03-14T05:08:07;10.99;75.29
25945;SHT31;13742;49.306;8.636;2023-03-14T05:09:07;10.99;75.40
25945;SHT31;13742;49.306;8.636;2023-03-14T05:10:08;10.96;75.46
25945;SHT31;13742;49.306;8.636;2023-03-14T05:11:09;10.99;75.49
25945;SHT31;13742;49.306;8.636;2023-03-14T05:12:08;11.02;75.42
25945;SHT31;13742;49.306;8.636;2023-03-14T05:13:07;10.98;75.41
25945;SHT31;13742;49.306;8.636;2023-03-14T05:14:07;10.99;75.29
25945;SHT31;13742;49.306;8.636;2023-03-14T05:15:08;10.98;75.33
25945;SHT31;13742;49.306;8.636;2023-03-14T05:16:09;10.96;75.43
25945;SHT31;13742;49.306;8.636;2023-03-14T05:17:07;10.96;75.39
25945;SHT31;13742;49.306;8.636;2023-03-14T05:18:07;10.98;75.40
25945;SHT31;13742;49.306;8.636;2023-03-14T05:19:07;10.98;75.38
25945;SHT31;13742;49.306;8.636;2023-03-14T05:20:12;11.03;74.87
25945;SHT31;13742;49.306;8.636;2023-03-14T05:21:07;11.02;75.01
25945;SHT31;13742;49.306;8.636;2023-03-14T05:22:07;11.03;74.75
25945;SHT31;13742;49.306;8.636;2023-03-14T05:23:07;11.02;74.69
25945;SHT31;13742;49.306;8.636;2023-03-14T05:24:07;11.02;74.94
25945;SHT31;13742;49.306;8.636;2023-03-14T05:25:07;11.01;75.13
25945;SHT31;13742;49.306;8.636;2023-03-14T05:26:07;11.03;75.07
25945;SHT31;13742;49.306;8.636;2023-03-14T05:27:07;11.03;74.83
25945;SHT31;13742;49.306;8.636;2023-03-14T05:28:07;11.05;74.96
25945;SHT31;13742;49.306;8.636;2023-03-14T05:29:07;11.02;75.01
25945;SHT31;13742;49.306;8.636;2023-03-14T05:30:10;11.03;74.85
25945;SHT31;13742;49.306;8.636;2023-03-14T05:31:08;11.05;75.21
25945;SHT31;13742;49.306;8.636;2023-03-14T05:32:07;11.02;75.20
25945;SHT31;13742;49.306;8.636;2023-03-14T05:33:07;11.02;75.19
25945;SHT31;13742;49.306;8.636;2023-03-14T05:34:07;11.03;75.21
25945;SHT31;13742;49.306;8.636;2023-03-14T05:35:07;11.03;75.33
25945;SHT31;13742;49.306;8.636;2023-03-14T05:36:07;11.06;75.15
25945;SHT31;13742;49.306;8.636;2023-03-14T05:37:07;11.03;75.20
25945;SHT31;13742;49.306;8.636;2023-03-14T05:38:07;11.05;75.27
25945;SHT31;13742;49.306;8.636;2023-03-14T05:39:07;11.02;75.30
25945;SHT31;13742;49.306;8.636;2023-03-14T05:40:08;11.03;75.44
25945;SHT31;13742;49.306;8.636;2023-03-14T05:41:07;11.03;75.22
25945;SHT31;13742;49.306;8.636;2023-03-14T05:42:07;11.05;75.06
25945;SHT31;13742;49.306;8.636;2023-03-14T05:43:08;11.02;75.24
25945;SHT31;13742;49.306;8.636;2023-03-14T05:44:07;11.05;75.46
25945;SHT31;13742;49.306;8.636;2023-03-14T05:45:07;11.05;75.48
25945;SHT31;13742;49.306;8.636;2023-03-14T05:46:07;11.05;75.45
25945;SHT31;13742;49.306;8.636;2023-03-14T05:47:07;11.05;75.07
25945;SHT31;13742;49.306;8.636;2023-03-14T05:48:07;11.08;74.96
25945;SHT31;13742;49.306;8.636;2023-03-14T05:49:07;11.05;75.04
25945;SHT31;13742;49.306;8.636;2023-03-14T05:50:08;11.06;74.91
25945;SHT31;13742;49.306;8.636;2023-03-14T05:51:07;11.08;74.76
25945;SHT31;13742;49.306;8.636;2023-03-14T05:52:07;11.09;74.77
25945;SHT31;13742;49.306;8.636;2023-03-14T05:53:07;11.08;75.16
25945;SHT31;13742;49.306;8.636;2023-03-14T05:54:07;11.08;75.09
25945;SHT31;13742;49.306;8.636;2023-03-14T05:55:07;11.06;75.00
25945;SHT31;13742;49.306;8.636;2023-03-14T05:56:07;11.08;74.90
25945;SHT31;13742;49.306;8.636;2023-03-14T05:57:07;11.09;74.78
25945;SHT31;13742;49.306;8.636;2023-03-14T05:58:07;11.08;74.70
25945;SHT31;13742;49.306;8.636;2023-03-14T05:59:08;11.09;74.55
25945;SHT31;13742;49.306;8.636;2023-03-14T06:00:08;11.12;74.30
25945;SHT31;13742;49.306;8.636;2023-03-14T06:01:07;11.11;74.35
25945;SHT31;13742;49.306;8.636;2023-03-14T06:02:07;11.13;74.34
25945;SHT31;13742;49.306;8.636;2023-03-14T06:03:07;11.12;74.43
25945;SHT31;13742;49.306;8.636;2023-03-14T06:04:07;11.15;74.47
25945;SHT31;13742;49.306;8.636;2023-03-14T06:05:07;11.13;74.18
25945;SHT31;13742;49.306;8.636;2023-03-14T06:06:07;11.13;74.09
25945;SHT31;13742;49.306;8.636;2023-03-14T06:07:07;11.13;74.24
25945;SHT31;13742;49.306;8.636;2023-03-14T06:08:07;11.15;74.14
25945;SHT31;13742;49.306;8.636;2023-03-14T06:09:07;11.13;74.19
25945;SHT31;13742;49.306;8.636;2023-03-14T06:10:07;11.13;74.17
25945;SHT31;13742;49.306;8.636;2023-03-14T06:11:07;11.16;74.42
25945;SHT31;13742;49.306;8.636;2023-03-14T06:12:07;11.15;74.47
25945;SHT31;13742;49.306;8.636;2023-03-14T06:13:07;11.16;74.41
25945;SHT31;13742;49.306;8.636;2023-03-14T06:14:07;11.16;74.07
25945;SHT31;13742;49.306;8.636;2023-03-14T06:15:07;11.16;74.13
25945;SHT31;13742;49.306;8.636;2023-03-14T06:16:07;11.13;74.29
25945;SHT31;13742;49.306;8.636;2023-03-14T06:17:07;11.18;74.35
25945;SHT31;13742;49.306;8.636;2023-03-14T06:18:07;11.16;74.21
25945;SHT31;13742;49.306;8.636;2023-03-14T06:19:07;11.15;74.33
25945;SHT31;13742;49.306;8.636;2023-03-14T06:20:08;11.12;74.68
25945;SHT31;13742;49.306;8.636;2023-03-14T06:21:07;11.16;74.41
25945;SHT31;13742;49.306;8.636;2023-03-14T06:22:07;11.15;74.58
25945;SHT31;13742;49.306;8.636;2023-03-14T06:23:08;11.12;74.50
25945;SHT31;13742;49.306;8.636;2023-03-14T06:24:07;11.12;74.57